Time;durP1;ratioP1;P1;durP2;ratioP2;P2;SDS_P1;SDS_P2;PMS_P1;PMS_P2;Temp;Humidity;BMP_temperature;BMP_pressure;BME280_temperature;BME280_humidity;BME280_pressure;Samples;Min_cycle;Max_cycle;Signal;HPM_P1;HPM_P2
2022/12/16 00:01:18;;;;;;;8.00;4.82;;;2.20;99.90;;;;;;5075226;28;20549;-70
2022/12/16 00:03:49;;;;;;;12.60;4.78;;;2.20;99.90;;;;;;5056942;28;20044;-70
2022/12/16 00:06:15;;;;;;;12.57;5.40;;;2.20;99.90;;;;;;5074530;28;20055;-71
2022/12/16 00:08:41;;;;;;;9.52;4.80;;;2.30;99.90;;;;;;5070872;28;20036;-71
2022/12/16 00:11:08;;;;;;;9.27;4.95;;;2.30;99.90;;;;;;5074585;28;20712;-71
2022/12/16 00:13:36;;;;;;;7.50;4.25;;;2.30;99.90;;;;;;5074740;28;20052;-71
2022/12/16 00:16:07;;;;;;;13.60;4.90;;;2.30;99.90;;;;;;5073197;28;20118;-71
2022/12/16 00:18:33;;;;;;;8.95;4.10;;;2.30;99.90;;;;;;5056569;28;20036;-71
2022/12/16 00:20:59;;;;;;;7.68;4.25;;;2.30;99.90;;;;;;5072994;28;20389;-72
2022/12/16 00:23:24;;;;;;;10.60;3.92;;;2.30;99.90;;;;;;5076016;28;20052;-71
2022/12/16 00:25:50;;;;;;;7.95;3.60;;;2.30;99.90;;;;;;5062298;28;20028;-71
2022/12/16 00:28:17;;;;;;;9.68;4.05;;;2.30;99.90;;;;;;5056840;28;20057;-71
2022/12/16 00:30:44;;;;;;;6.97;3.60;;;2.30;99.90;;;;;;5072987;28;20116;-71
2022/12/16 00:33:09;;;;;;;8.30;3.78;;;2.30;99.90;;;;;;5066279;28;20052;-72
2022/12/16 00:35:35;;;;;;;7.43;3.17;;;2.30;99.90;;;;;;5073926;28;20058;-71
2022/12/16 00:38:01;;;;;;;8.40;3.92;;;2.30;99.90;;;;;;5074204;28;20033;-71
2022/12/16 00:40:27;;;;;;;13.20;3.55;;;2.30;99.90;;;;;;5082001;28;20050;-72
2022/12/16 00:42:53;;;;;;;8.50;3.38;;;2.30;99.90;;;;;;5074362;28;20013;-72
2022/12/16 00:45:19;;;;;;;11.50;3.03;;;2.30;99.90;;;;;;5074011;28;20051;-71
2022/12/16 00:47:47;;;;;;;8.40;3.15;;;2.30;99.90;;;;;;5043876;28;20018;-70
2022/12/16 00:50:13;;;;;;;6.78;3.78;;;2.30;99.90;;;;;;5068137;28;20180;-71
2022/12/16 00:52:38;;;;;;;7.40;3.50;;;2.30;99.90;;;;;;5067748;28;20095;-71
2022/12/16 00:55:05;;;;;;;7.32;3.00;;;2.30;99.90;;;;;;5070337;28;20060;-70
2022/12/16 00:57:30;;;;;;;7.75;3.08;;;2.30;99.90;;;;;;5060659;28;20028;-71
2022/12/16 00:59:56;;;;;;;6.18;3.13;;;2.20;99.90;;;;;;5071368;28;20031;-71
2022/12/16 01:02:22;;;;;;;5.40;2.88;;;2.20;99.90;;;;;;5065030;28;20044;-71
2022/12/16 01:04:47;;;;;;;8.43;3.10;;;2.20;99.90;;;;;;5065753;28;20035;-71
2022/12/16 01:07:13;;;;;;;8.30;3.30;;;2.10;99.90;;;;;;5060742;28;20040;-71
2022/12/16 01:09:38;;;;;;;6.15;3.17;;;2.10;99.90;;;;;;5074000;28;20021;-71
2022/12/16 01:12:05;;;;;;;8.73;2.92;;;2.10;99.90;;;;;;5068592;28;20030;-70
2022/12/16 01:14:30;;;;;;;9.38;2.97;;;2.10;99.90;;;;;;5075578;28;20024;-71
2022/12/16 01:16:56;;;;;;;14.13;3.15;;;2.10;99.90;;;;;;5058010;28;20020;-71
2022/12/16 01:19:22;;;;;;;10.00;2.95;;;2.10;99.90;;;;;;5058468;28;20041;-71
2022/12/16 01:21:48;;;;;;;8.02;2.78;;;2.10;99.90;;;;;;5071807;28;20469;-72
2022/12/16 01:24:13;;;;;;;8.68;2.92;;;2.10;99.90;;;;;;5071189;28;20024;-71
2022/12/16 01:26:39;;;;;;;7.63;2.75;;;2.10;99.90;;;;;;5064605;28;20047;-71
2022/12/16 01:29:05;;;;;;;10.80;3.47;;;2.10;99.90;;;;;;5067892;28;20027;-71
2022/12/16 01:31:31;;;;;;;9.88;3.05;;;2.00;99.90;;;;;;5063189;28;20036;-71
2022/12/16 01:33:57;;;;;;;8.25;2.85;;;2.00;99.90;;;;;;5066747;28;20024;-71
2022/12/16 01:36:23;;;;;;;7.68;3.10;;;2.00;99.90;;;;;;5067750;28;20028;-71
2022/12/16 01:38:49;;;;;;;5.68;2.60;;;2.00;99.90;;;;;;5062798;28;20470;-71
2022/12/16 01:41:16;;;;;;;9.45;2.58;;;2.00;99.90;;;;;;5058805;28;20071;-71
2022/12/16 01:43:43;;;;;;;9.32;3.30;;;1.90;99.90;;;;;;5056533;28;20421;-70
2022/12/16 01:46:12;;;;;;;6.88;2.88;;;1.90;99.90;;;;;;5062650;28;20029;-71
2022/12/16 01:48:43;;;;;;;14.10;3.50;;;1.90;99.90;;;;;;5068306;28;20023;-71
2022/12/16 01:51:43;;;;;;;9.82;3.17;;;1.90;99.90;;;;;;5066814;28;20025;-71
2022/12/16 01:54:15;;;;;;;9.02;3.17;;;1.90;99.90;;;;;;5059000;28;20492;-71
2022/12/16 01:56:48;;;;;;;8.57;2.90;;;1.90;99.90;;;;;;5070881;28;20512;-71
2022/12/16 01:59:16;;;;;;;6.93;3.35;;;1.90;99.90;;;;;;5072716;28;20036;-71
2022/12/16 02:01:42;;;;;;;9.98;2.78;;;1.90;99.90;;;;;;5072693;28;20060;-71
2022/12/16 02:04:07;;;;;;;8.05;2.90;;;1.90;99.90;;;;;;5072671;28;20152;-71
2022/12/16 02:06:33;;;;;;;10.48;2.90;;;1.90;99.90;;;;;;5071003;28;20155;-70
2022/12/16 02:09:04;;;;;;;8.70;2.90;;;1.90;99.90;;;;;;5059136;28;20016;-71
2022/12/16 02:11:43;;;;;;;7.90;2.70;;;1.90;99.90;;;;;;5072259;28;20465;-71
2022/12/16 02:14:35;;;;;;;6.28;2.42;;;1.90;99.90;;;;;;5072028;28;20115;-71
2022/12/16 02:17:46;;;;;;;11.68;2.63;;;1.90;99.90;;;;;;5067256;28;20029;-71
2022/12/16 02:20:52;;;;;;;11.38;2.30;;;1.90;99.90;;;;;;5068976;28;20075;-70
2022/12/16 02:23:25;;;;;;;10.55;2.17;;;1.90;99.90;;;;;;5067266;28;20032;-70
2022/12/16 02:26:25;;;;;;;9.48;1.80;;;1.90;99.90;;;;;;5059132;28;20035;-70
2022/12/16 02:29:09;;;;;;;11.07;2.00;;;1.80;99.90;;;;;;5068432;28;20551;-70
2022/12/16 02:31:47;;;;;;;7.43;1.67;;;1.80;99.90;;;;;;5070799;28;20033;-70
2022/12/16 02:34:22;;;;;;;6.72;1.85;;;1.80;99.90;;;;;;5059968;28;20470;-70
2022/12/16 02:37:15;;;;;;;5.75;1.55;;;1.80;99.90;;;;;;5059247;28;20533;-70
2022/12/16 02:39:59;;;;;;;9.07;2.15;;;1.80;99.90;;;;;;5054537;28;20435;-70
2022/12/16 02:42:30;;;;;;;9.57;1.95;;;1.70;99.90;;;;;;5068128;28;20025;-70
2022/12/16 02:45:09;;;;;;;10.95;2.13;;;1.70;99.90;;;;;;5071512;28;20033;-70
2022/12/16 02:47:35;;;;;;;11.13;1.90;;;1.70;99.90;;;;;;5071425;28;20024;-71
2022/12/16 02:50:01;;;;;;;9.50;1.90;;;1.70;99.90;;;;;;5071030;28;20374;-71
2022/12/16 02:52:33;;;;;;;10.60;1.80;;;1.70;99.90;;;;;;5068771;28;20033;-71
2022/12/16 02:55:06;;;;;;;11.07;1.75;;;1.60;99.90;;;;;;5051942;28;20056;-71
2022/12/16 02:57:40;;;;;;;9.90;1.63;;;1.60;99.90;;;;;;5053824;28;20139;-71
2022/12/16 03:00:11;;;;;;;10.20;1.60;;;1.60;99.90;;;;;;5059647;28;20067;-71
2022/12/16 03:02:59;;;;;;;6.45;1.40;;;1.60;99.90;;;;;;5065886;28;20097;-71
2022/12/16 03:05:27;;;;;;;11.20;1.65;;;1.60;99.90;;;;;;5069901;28;20020;-70
2022/12/16 03:07:55;;;;;;;7.03;1.60;;;1.50;99.90;;;;;;5057670;28;20024;-70
2022/12/16 03:10:26;;;;;;;11.30;1.98;;;1.50;99.90;;;;;;5071608;28;20027;-71
2022/12/16 03:12:54;;;;;;;5.72;1.40;;;1.50;99.90;;;;;;5067279;28;20021;-70
2022/12/16 03:15:24;;;;;;;6.90;1.23;;;1.50;99.90;;;;;;5068720;28;20036;-71
2022/12/16 03:17:53;;;;;;;9.13;1.75;;;1.50;99.90;;;;;;5057687;28;20074;-70
2022/12/16 03:20:28;;;;;;;6.10;1.80;;;1.50;99.90;;;;;;5052599;28;20056;-71
2022/12/16 03:22:59;;;;;;;4.80;1.70;;;1.50;99.90;;;;;;5067664;28;20037;-71
2022/12/16 03:25:27;;;;;;;7.10;1.45;;;1.40;99.90;;;;;;5056929;28;20370;-70
2022/12/16 03:28:12;;;;;;;10.10;1.50;;;1.40;99.90;;;;;;5051788;28;20036;-70
2022/12/16 03:30:46;;;;;;;7.65;1.80;;;1.40;99.90;;;;;;5062318;28;20031;-71
2022/12/16 03:33:23;;;;;;;11.83;2.23;;;1.30;99.90;;;;;;5070833;28;20028;-71
2022/12/16 03:35:53;;;;;;;7.05;1.85;;;1.30;99.90;;;;;;5066311;28;20033;-71
2022/12/16 03:38:20;;;;;;;9.95;1.70;;;1.30;99.90;;;;;;5070943;28;20478;-71
2022/12/16 03:40:47;;;;;;;8.98;1.90;;;1.30;99.90;;;;;;5070052;28;20025;-71
2022/12/16 03:43:14;;;;;;;12.20;1.92;;;1.30;99.90;;;;;;5055086;28;20084;-71
2022/12/16 03:45:44;;;;;;;11.75;1.80;;;1.20;99.90;;;;;;5063914;28;20510;-70
2022/12/16 03:48:11;;;;;;;7.95;1.80;;;1.20;99.90;;;;;;5066837;28;20032;-71
2022/12/16 03:50:38;;;;;;;6.75;1.70;;;1.20;99.90;;;;;;5057038;28;20033;-70
2022/12/16 03:53:05;;;;;;;9.82;1.70;;;1.20;99.90;;;;;;5067181;28;20020;-71
2022/12/16 03:55:31;;;;;;;6.82;1.77;;;1.20;99.90;;;;;;5073219;28;20032;-71
2022/12/16 03:57:57;;;;;;;6.22;1.70;;;1.10;99.90;;;;;;5060134;28;20097;-71
2022/12/16 04:00:23;;;;;;;5.97;2.00;;;1.10;99.90;;;;;;5079602;28;20017;-71
2022/12/16 04:02:49;;;;;;;6.25;1.98;;;1.00;99.90;;;;;;5070871;28;20048;-71
2022/12/16 04:05:16;;;;;;;4.88;1.85;;;1.00;99.90;;;;;;5071847;28;20107;-71
2022/12/16 04:07:41;;;;;;;6.90;1.92;;;1.00;99.90;;;;;;5072765;28;20032;-71
2022/12/16 04:10:08;;;;;;;8.68;2.00;;;1.00;99.90;;;;;;5061943;28;20025;-70
2022/12/16 04:27:23;;;;;;;10.63;2.28;;;0.80;99.90;;;;;;5068218;28;20031;-70
2022/12/16 04:29:18;;;;;;;10.98;2.40;;;0.80;99.90;;;;;;5073569;28;20523;-71
2022/12/16 04:31:44;;;;;;;4.50;1.90;;;0.70;99.90;;;;;;5056311;28;20025;-71
2022/12/16 04:34:26;;;;;;;16.85;3.40;;;0.70;99.90;;;;;;5070144;28;20434;-71
